sensor_id;sensor_type;location;lat;lon;timestamp;temperature;humidity
31133;DHT22;17779;50.942;4.026;2023-07-29T00:00:47;19.80;99.90
31133;DHT22;17779;50.942;4.026;2023-07-29T00:03:12;19.70;99.90
31133;DHT22;17779;50.942;4.026;2023-07-29T00:05:38;19.70;99.90
31133;DHT22;17779;50.942;4.026;2023-07-29T00:08:04;19.70;99.90
31133;DHT22;17779;50.942;4.026;2023-07-29T00:10:35;19.60;99.90
31133;DHT22;17779;50.942;4.026;2023-07-29T00:13:01;19.50;99.90
31133;DHT22;17779;50.942;4.026;2023-07-29T00:15:27;19.60;99.90
31133;DHT22;17779;50.942;4.026;2023-07-29T00:17:52;19.60;99.90
31133;DHT22;17779;50.942;4.026;2023-07-29T00:20:18;19.70;99.90
31133;DHT22;17779;50.942;4.026;2023-07-29T00:22:43;19.60;99.90
31133;DHT22;17779;50.942;4.026;2023-07-29T00:25:09;19.50;99.90
31133;DHT22;17779;50.942;4.026;2023-07-29T00:27:35;19.40;99.90
31133;DHT22;17779;50.942;4.026;2023-07-29T00:30:00;19.30;99.90
31133;DHT22;17779;50.942;4.026;2023-07-29T00:32:29;19.30;99.90
31133;DHT22;17779;50.942;4.026;2023-07-29T00:34:55;19.40;99.90
31133;DHT22;17779;50.942;4.026;2023-07-29T00:37:20;19.30;99.90
31133;DHT22;17779;50.942;4.026;2023-07-29T00:39:46;19.40;99.90
31133;DHT22;17779;50.942;4.026;2023-07-29T00:42:12;19.30;99.90
31133;DHT22;17779;50.942;4.026;2023-07-29T00:44:37;19.20;99.90
31133;DHT22;17779;50.942;4.026;2023-07-29T00:47:03;19.30;99.90
31133;DHT22;17779;50.942;4.026;2023-07-29T00:49:30;19.30;99.90
31133;DHT22;17779;50.942;4.026;2023-07-29T00:51:55;19.50;99.90
31133;DHT22;17779;50.942;4.026;2023-07-29T00:54:21;19.50;99.90
31133;DHT22;17779;50.942;4.026;2023-07-29T00:56:47;19.30;99.90
31133;DHT22;17779;50.942;4.026;2023-07-29T00:59:13;19.40;99.90
31133;DHT22;17779;50.942;4.026;2023-07-29T01:01:38;19.30;99.90
31133;DHT22;17779;50.942;4.026;2023-07-29T01:04:04;19.30;99.90
31133;DHT22;17779;50.942;4.026;2023-07-29T01:09:20;19.10;99.90
31133;DHT22;17779;50.942;4.026;2023-07-29T01:12:23;19.10;99.90
31133;DHT22;17779;50.942;4.026;2023-07-29T01:17:12;19.30;99.90
31133;DHT22;17779;50.942;4.026;2023-07-29T01:19:50;19.40;99.90
31133;DHT22;17779;50.942;4.026;2023-07-29T01:22:20;19.40;99.90
31133;DHT22;17779;50.942;4.026;2023-07-29T01:24:46;19.30;99.90
31133;DHT22;17779;50.942;4.026;2023-07-29T01:27:12;19.30;99.90
31133;DHT22;17779;50.942;4.026;2023-07-29T01:29:37;19.40;99.90
31133;DHT22;17779;50.942;4.026;2023-07-29T01:32:08;19.30;99.90
31133;DHT22;17779;50.942;4.026;2023-07-29T01:34:39;19.20;99.90
31133;DHT22;17779;50.942;4.026;2023-07-29T01:37:06;18.90;99.90
31133;DHT22;17779;50.942;4.026;2023-07-29T01:39:34;18.80;99.90
31133;DHT22;17779;50.942;4.026;2023-07-29T01:42:02;18.90;99.90
31133;DHT22;17779;50.942;4.026;2023-07-29T01:44:28;18.60;99.90
31133;DHT22;17779;50.942;4.026;2023-07-29T01:46:55;18.60;99.90
31133;DHT22;17779;50.942;4.026;2023-07-29T01:49:21;18.40;99.90
31133;DHT22;17779;50.942;4.026;2023-07-29T01:51:46;18.50;99.90
31133;DHT22;17779;50.942;4.026;2023-07-29T01:54:12;18.50;99.90
31133;DHT22;17779;50.942;4.026;2023-07-29T01:56:38;18.40;99.90
31133;DHT22;17779;50.942;4.026;2023-07-29T01:59:03;18.40;99.90
31133;DHT22;17779;50.942;4.026;2023-07-29T02:01:29;18.60;99.90
31133;DHT22;17779;50.942;4.026;2023-07-29T02:03:55;18.40;99.90
31133;DHT22;17779;50.942;4.026;2023-07-29T02:06:21;18.20;99.90
31133;DHT22;17779;50.942;4.026;2023-07-29T02:08:46;18.20;99.90
31133;DHT22;17779;50.942;4.026;2023-07-29T02:11:12;18.30;99.90
31133;DHT22;17779;50.942;4.026;2023-07-29T02:13:38;18.40;99.90
31133;DHT22;17779;50.942;4.026;2023-07-29T02:16:03;18.40;99.90
31133;DHT22;17779;50.942;4.026;2023-07-29T02:18:29;18.20;99.90
31133;DHT22;17779;50.942;4.026;2023-07-29T02:20:54;18.30;99.90
31133;DHT22;17779;50.942;4.026;2023-07-29T02:23:20;18.40;99.90
31133;DHT22;17779;50.942;4.026;2023-07-29T02:25:46;18.40;99.90
31133;DHT22;17779;50.942;4.026;2023-07-29T02:28:11;18.30;99.90
31133;DHT22;17779;50.942;4.026;2023-07-29T02:30:40;18.30;99.90
31133;DHT22;17779;50.942;4.026;2023-07-29T02:33:06;18.40;99.90
31133;DHT22;17779;50.942;4.026;2023-07-29T02:35:32;18.60;99.90
31133;DHT22;17779;50.942;4.026;2023-07-29T02:37:57;18.70;99.90
31133;DHT22;17779;50.942;4.026;2023-07-29T02:40:23;18.60;99.90
31133;DHT22;17779;50.942;4.026;2023-07-29T02:42:52;18.60;99.90
31133;DHT22;17779;50.942;4.026;2023-07-29T02:45:18;18.50;99.90
31133;DHT22;17779;50.942;4.026;2023-07-29T02:47:43;18.60;99.90
31133;DHT22;17779;50.942;4.026;2023-07-29T02:50:09;18.70;99.90
31133;DHT22;17779;50.942;4.026;2023-07-29T02:52:36;18.70;99.90
31133;DHT22;17779;50.942;4.026;2023-07-29T02:55:02;18.60;99.90
31133;DHT22;17779;50.942;4.026;2023-07-29T02:57:28;18.60;99.90
31133;DHT22;17779;50.942;4.026;2023-07-29T02:59:53;18.50;99.90
31133;DHT22;17779;50.942;4.026;2023-07-29T03:02:19;18.30;99.90
31133;DHT22;17779;50.942;4.026;2023-07-29T03:04:45;18.20;99.90
31133;DHT22;17779;50.942;4.026;2023-07-29T03:07:12;18.10;99.90
31133;DHT22;17779;50.942;4.026;2023-07-29T03:09:39;18.00;99.90
31133;DHT22;17779;50.942;4.026;2023-07-29T03:12:07;18.00;99.90
31133;DHT22;17779;50.942;4.026;2023-07-29T03:14:33;18.10;99.90
31133;DHT22;17779;50.942;4.026;2023-07-29T03:17:01;18.10;99.90
31133;DHT22;17779;50.942;4.026;2023-07-29T03:19:27;18.10;99.90
31133;DHT22;17779;50.942;4.026;2023-07-29T03:21:52;18.10;99.90
31133;DHT22;17779;50.942;4.026;2023-07-29T03:24:18;17.90;99.90
31133;DHT22;17779;50.942;4.026;2023-07-29T03:26:44;18.00;99.90
31133;DHT22;17779;50.942;4.026;2023-07-29T03:29:09;18.10;99.90
31133;DHT22;17779;50.942;4.026;2023-07-29T03:31:35;17.90;99.90
31133;DHT22;17779;50.942;4.026;2023-07-29T03:34:01;17.90;99.90
31133;DHT22;17779;50.942;4.026;2023-07-29T03:36:26;18.00;99.90
31133;DHT22;17779;50.942;4.026;2023-07-29T03:38:52;18.10;99.90
31133;DHT22;17779;50.942;4.026;2023-07-29T03:41:18;18.20;99.90
31133;DHT22;17779;50.942;4.026;2023-07-29T03:43:43;18.00;99.90
31133;DHT22;17779;50.942;4.026;2023-07-29T03:46:09;18.10;99.90
31133;DHT22;17779;50.942;4.026;2023-07-29T03:48:34;18.10;99.90
31133;DHT22;17779;50.942;4.026;2023-07-29T03:51:00;18.30;99.90
31133;DHT22;17779;50.942;4.026;2023-07-29T03:53:25;18.20;99.90
31133;DHT22;17779;50.942;4.026;2023-07-29T03:55:51;18.30;99.90
31133;DHT22;17779;50.942;4.026;2023-07-29T03:58:17;18.20;99.90
31133;DHT22;17779;50.942;4.026;2023-07-29T04:00:42;18.40;99.90
31133;DHT22;17779;50.942;4.026;2023-07-29T04:03:08;18.40;99.90
31133;DHT22;17779;50.942;4.026;2023-07-29T04:05:33;18.60;99.90
31133;DHT22;17779;50.942;4.026;2023-07-29T04:07:59;18.60;99.90
31133;DHT22;17779;50.942;4.026;2023-07-29T04:10:25;18.40;99.90
31133;DHT22;17779;50.942;4.026;2023-07-29T04:12:51;18.50;99.90
31133;DHT22;17779;50.942;4.026;2023-07-29T04:15:16;18.40;99.90
31133;DHT22;17779;50.942;4.026;2023-07-29T04:17:42;18.50;99.90
31133;DHT22;17779;50.942;4.026;2023-07-29T04:20:07;18.50;99.90
31133;DHT22;17779;50.942;4.026;2023-07-29T04:22:33;18.60;99.90
31133;DHT22;17779;50.942;4.026;2023-07-29T04:24:59;18.50;99.90
31133;DHT22;17779;50.942;4.026;2023-07-29T04:27:24;18.50;99.90
31133;DHT22;17779;50.942;4.026;2023-07-29T04:29:50;18.60;99.90
31133;DHT22;17779;50.942;4.026;2023-07-29T04:32:16;18.70;99.90
31133;DHT22;17779;50.942;4.026;2023-07-29T04:34:41;18.70;99.90
31133;DHT22;17779;50.942;4.026;2023-07-29T04:37:07;18.50;99.90
31133;DHT22;17779;50.942;4.026;2023-07-29T04:39:33;18.60;99.90
31133;DHT22;17779;50.942;4.026;2023-07-29T04:41:58;18.50;99.90
31133;DHT22;17779;50.942;4.026;2023-07-29T04:44:24;18.40;99.90
31133;DHT22;17779;50.942;4.026;2023-07-29T04:46:50;18.30;99.90
31133;DHT22;17779;50.942;4.026;2023-07-29T04:49:15;18.30;99.90
31133;DHT22;17779;50.942;4.026;2023-07-29T04:51:41;18.20;99.90
31133;DHT22;17779;50.942;4.026;2023-07-29T04:54:07;18.30;99.90
31133;DHT22;17779;50.942;4.026;2023-07-29T04:56:32;18.30;99.90
31133;DHT22;17779;50.942;4.026;2023-07-29T04:58:58;18.30;99.90
31133;DHT22;17779;50.942;4.026;2023-07-29T05:01:23;18.10;99.90
31133;DHT22;17779;50.942;4.026;2023-07-29T05:03:50;18.20;99.90
31133;DHT22;17779;50.942;4.026;2023-07-29T05:06:15;18.20;99.90
31133;DHT22;17779;50.942;4.026;2023-07-29T05:08:41;18.10;99.90
31133;DHT22;17779;50.942;4.026;2023-07-29T05:11:07;18.10;99.90
31133;DHT22;17779;50.942;4.026;2023-07-29T05:13:32;17.90;99.90
31133;DHT22;17779;50.942;4.026;2023-07-29T05:15:58;17.90;99.90
31133;DHT22;17779;50.942;4.026;2023-07-29T05:18:23;17.90;99.90
31133;DHT22;17779;50.942;4.026;2023-07-29T05:20:49;17.90;99.90
31133;DHT22;17779;50.942;4.026;2023-07-29T05:23:15;17.80;99.90
31133;DHT22;17779;50.942;4.026;2023-07-29T05:25:40;17.90;99.90
31133;DHT22;17779;50.942;4.026;2023-07-29T05:28:06;18.00;99.90
31133;DHT22;17779;50.942;4.026;2023-07-29T05:30:32;18.10;99.90
31133;DHT22;17779;50.942;4.026;2023-07-29T05:32:59;18.10;99.90
31133;DHT22;17779;50.942;4.026;2023-07-29T05:35:25;18.20;99.90
31133;DHT22;17779;50.942;4.026;2023-07-29T05:37:50;18.30;99.90
31133;DHT22;17779;50.942;4.026;2023-07-29T05:40:16;18.50;99.90
31133;DHT22;17779;50.942;4.026;2023-07-29T05:42:42;18.70;99.90
31133;DHT22;17779;50.942;4.026;2023-07-29T05:45:08;19.00;99.90
31133;DHT22;17779;50.942;4.026;2023-07-29T05:47:34;19.10;99.90
31133;DHT22;17779;50.942;4.026;2023-07-29T05:49:59;19.00;99.90
31133;DHT22;17779;50.942;4.026;2023-07-29T05:52:32;19.10;99.90
31133;DHT22;17779;50.942;4.026;2023-07-29T05:54:58;19.20;99.90
31133;DHT22;17779;50.942;4.026;2023-07-29T05:57:23;19.30;99.90
31133;DHT22;17779;50.942;4.026;2023-07-29T05:59:49;19.40;99.90
31133;DHT22;17779;50.942;4.026;2023-07-29T06:02:15;19.40;99.90
31133;DHT22;17779;50.942;4.026;2023-07-29T06:04:41;19.50;99.90
31133;DHT22;17779;50.942;4.026;2023-07-29T06:07:06;19.70;99.90
31133;DHT22;17779;50.942;4.026;2023-07-29T06:09:32;19.90;99.90
31133;DHT22;17779;50.942;4.026;2023-07-29T06:11:57;20.10;99.90
31133;DHT22;17779;50.942;4.026;2023-07-29T06:14:23;20.40;99.90
31133;DHT22;17779;50.942;4.026;2023-07-29T06:16:49;20.50;99.90
31133;DHT22;17779;50.942;4.026;2023-07-29T06:19:14;20.30;99.90
31133;DHT22;17779;50.942;4.026;2023-07-29T06:21:40;20.30;99.90
31133;DHT22;17779;50.942;4.026;2023-07-29T06:24:05;20.20;99.90
31133;DHT22;17779;50.942;4.026;2023-07-29T06:26:31;20.30;99.90
31133;DHT22;17779;50.942;4.026;2023-07-29T06:28:57;20.30;99.90
31133;DHT22;17779;50.942;4.026;2023-07-29T06:31:22;20.30;99.90
31133;DHT22;17779;50.942;4.026;2023-07-29T06:33:48;20.50;99.90
31133;DHT22;17779;50.942;4.026;2023-07-29T06:36:13;20.30;99.90
31133;DHT22;17779;50.942;4.026;2023-07-29T06:38:39;20.30;99.90
31133;DHT22;17779;50.942;4.026;2023-07-29T06:41:06;20.50;99.90
31133;DHT22;17779;50.942;4.026;2023-07-29T06:43:32;20.30;99.90
31133;DHT22;17779;50.942;4.026;2023-07-29T06:45:57;20.30;99.90
31133;DHT22;17779;50.942;4.026;2023-07-29T06:48:23;20.10;99.90
31133;DHT22;17779;50.942;4.026;2023-07-29T06:50:49;20.20;99.90
31133;DHT22;17779;50.942;4.026;2023-07-29T06:53:15;19.90;99.90
31133;DHT22;17779;50.942;4.026;2023-07-29T06:55:41;20.00;99.90
31133;DHT22;17779;50.942;4.026;2023-07-29T06:58:07;20.20;99.90
31133;DHT22;17779;50.942;4.026;2023-07-29T07:00:32;20.10;99.90
31133;DHT22;17779;50.942;4.026;2023-07-29T07:02:58;20.30;99.90
31133;DHT22;17779;50.942;4.026;2023-07-29T07:05:24;20.40;99.90
31133;DHT22;17779;50.942;4.026;2023-07-29T07:07:50;20.30;99.90
31133;DHT22;17779;50.942;4.026;2023-07-29T07:10:15;20.30;99.90
31133;DHT22;17779;50.942;4.026;2023-07-29T07:12:41;20.50;99.90
31133;DHT22;17779;50.942;4.026;2023-07-29T07:15:07;20.60;99.90
31133;DHT22;17779;50.942;4.026;2023-07-29T07:17:32;20.70;99.90
31133;DHT22;17779;50.942;4.026;2023-07-29T07:19:58;20.60;99.90
31133;DHT22;17779;50.942;4.026;2023-07-29T07:22:23;21.00;99.90
31133;DHT22;17779;50.942;4.026;2023-07-29T07:24:49;21.60;99.90
31133;DHT22;17779;50.942;4.026;2023-07-29T07:27:15;22.60;99.90
31133;DHT22;17779;50.942;4.026;2023-07-29T07:29:40;23.80;99.90
31133;DHT22;17779;50.942;4.026;2023-07-29T07:32:06;23.70;99.90
31133;DHT22;17779;50.942;4.026;2023-07-29T07:34:31;23.20;99.90
31133;DHT22;17779;50.942;4.026;2023-07-29T07:36:58;22.70;99.90
31133;DHT22;17779;50.942;4.026;2023-07-29T07:39:24;22.80;99.90
31133;DHT22;17779;50.942;4.026;2023-07-29T07:41:49;23.30;99.90
31133;DHT22;17779;50.942;4.026;2023-07-29T07:44:15;23.30;99.90
31133;DHT22;17779;50.942;4.026;2023-07-29T07:46:43;23.60;99.90
31133;DHT22;17779;50.942;4.026;2023-07-29T07:49:09;24.30;99.90
31133;DHT22;17779;50.942;4.026;2023-07-29T07:51:35;24.30;99.90
31133;DHT22;17779;50.942;4.026;2023-07-29T07:54:00;24.20;99.90
31133;DHT22;17779;50.942;4.026;2023-07-29T07:56:26;23.30;99.90
31133;DHT22;17779;50.942;4.026;2023-07-29T07:58:52;23.60;99.90
31133;DHT22;17779;50.942;4.026;2023-07-29T08:01:18;23.40;99.90
31133;DHT22;17779;50.942;4.026;2023-07-29T08:03:43;23.10;99.90
31133;DHT22;17779;50.942;4.026;2023-07-29T08:06:09;23.10;99.90
31133;DHT22;17779;50.942;4.026;2023-07-29T08:08:34;23.90;99.90
31133;DHT22;17779;50.942;4.026;2023-07-29T08:11:00;25.50;99.90
31133;DHT22;17779;50.942;4.026;2023-07-29T08:13:26;26.20;99.90
31133;DHT22;17779;50.942;4.026;2023-07-29T08:15:52;26.60;99.90
31133;DHT22;17779;50.942;4.026;2023-07-29T08:18:18;26.60;99.90
31133;DHT22;17779;50.942;4.026;2023-07-29T08:20:58;27.50;99.90
31133;DHT22;17779;50.942;4.026;2023-07-29T08:23:24;27.90;99.90
31133;DHT22;17779;50.942;4.026;2023-07-29T08:25:53;29.00;99.90
31133;DHT22;17779;50.942;4.026;2023-07-29T08:28:19;29.00;99.90
31133;DHT22;17779;50.942;4.026;2023-07-29T08:30:44;29.70;99.90
31133;DHT22;17779;50.942;4.026;2023-07-29T08:33:10;31.20;99.90
31133;DHT22;17779;50.942;4.026;2023-07-29T08:35:35;32.20;99.90
31133;DHT22;17779;50.942;4.026;2023-07-29T08:38:02;30.60;99.90
31133;DHT22;17779;50.942;4.026;2023-07-29T08:40:29;30.50;99.90
31133;DHT22;17779;50.942;4.026;2023-07-29T08:42:55;29.90;99.90
31133;DHT22;17779;50.942;4.026;2023-07-29T08:45:24;29.20;99.90
31133;DHT22;17779;50.942;4.026;2023-07-29T08:47:51;28.10;99.90
31133;DHT22;17779;50.942;4.026;2023-07-29T08:50:20;27.70;99.90
31133;DHT22;17779;50.942;4.026;2023-07-29T08:52:46;27.30;99.90
31133;DHT22;17779;50.942;4.026;2023-07-29T08:55:13;26.80;99.90
31133;DHT22;17779;50.942;4.026;2023-07-29T08:57:39;27.50;99.90
31133;DHT22;17779;50.942;4.026;2023-07-29T09:00:05;28.20;99.90
31133;DHT22;17779;50.942;4.026;2023-07-29T09:02:30;27.50;99.90
31133;DHT22;17779;50.942;4.026;2023-07-29T09:04:56;27.50;99.90
31133;DHT22;17779;50.942;4.026;2023-07-29T09:07:22;27.50;99.90
31133;DHT22;17779;50.942;4.026;2023-07-29T09:09:47;26.80;99.90
31133;DHT22;17779;50.942;4.026;2023-07-29T09:12:13;26.10;99.90
31133;DHT22;17779;50.942;4.026;2023-07-29T09:14:39;25.60;99.90
31133;DHT22;17779;50.942;4.026;2023-07-29T09:17:06;25.20;99.90
31133;DHT22;17779;50.942;4.026;2023-07-29T09:19:33;24.30;99.90
31133;DHT22;17779;50.942;4.026;2023-07-29T09:21:58;24.10;99.90
31133;DHT22;17779;50.942;4.026;2023-07-29T09:24:24;24.20;99.90
31133;DHT22;17779;50.942;4.026;2023-07-29T09:26:50;24.10;99.90
31133;DHT22;17779;50.942;4.026;2023-07-29T09:29:16;23.80;99.90
31133;DHT22;17779;50.942;4.026;2023-07-29T09:31:47;23.50;99.90
31133;DHT22;17779;50.942;4.026;2023-07-29T09:34:13;23.50;99.90
31133;DHT22;17779;50.942;4.026;2023-07-29T09:36:40;23.50;99.90
31133;DHT22;17779;50.942;4.026;2023-07-29T09:39:10;24.00;99.90
31133;DHT22;17779;50.942;4.026;2023-07-29T09:41:36;24.80;99.90
31133;DHT22;17779;50.942;4.026;2023-07-29T09:44:02;24.90;99.90
31133;DHT22;17779;50.942;4.026;2023-07-29T09:46:32;25.00;99.90
31133;DHT22;17779;50.942;4.026;2023-07-29T09:48:59;24.80;99.90
31133;DHT22;17779;50.942;4.026;2023-07-29T09:51:24;24.30;99.90
31133;DHT22;17779;50.942;4.026;2023-07-29T09:53:50;24.30;99.90
31133;DHT22;17779;50.942;4.026;2023-07-29T09:56:16;24.40;99.90
31133;DHT22;17779;50.942;4.026;2023-07-29T09:58:42;24.70;99.90
31133;DHT22;17779;50.942;4.026;2023-07-29T10:01:08;24.60;99.90
31133;DHT22;17779;50.942;4.026;2023-07-29T10:03:34;24.50;99.90
31133;DHT22;17779;50.942;4.026;2023-07-29T10:06:01;24.70;99.90
31133;DHT22;17779;50.942;4.026;2023-07-29T10:08:29;24.90;99.90
31133;DHT22;17779;50.942;4.026;2023-07-29T10:10:57;25.30;99.90
31133;DHT22;17779;50.942;4.026;2023-07-29T10:13:23;25.40;99.90
31133;DHT22;17779;50.942;4.026;2023-07-29T10:15:50;24.70;99.90
31133;DHT22;17779;50.942;4.026;2023-07-29T10:18:15;24.60;99.90
31133;DHT22;17779;50.942;4.026;2023-07-29T10:20:41;24.30;99.90
31133;DHT22;17779;50.942;4.026;2023-07-29T10:23:07;23.90;99.90
31133;DHT22;17779;50.942;4.026;2023-07-29T10:25:37;23.70;99.90
31133;DHT22;17779;50.942;4.026;2023-07-29T10:28:07;23.80;99.90
31133;DHT22;17779;50.942;4.026;2023-07-29T10:30:33;23.80;99.90
31133;DHT22;17779;50.942;4.026;2023-07-29T10:33:02;23.90;99.90
31133;DHT22;17779;50.942;4.026;2023-07-29T10:35:28;24.00;99.90
31133;DHT22;17779;50.942;4.026;2023-07-29T10:37:54;24.10;99.90
31133;DHT22;17779;50.942;4.026;2023-07-29T10:40:21;24.20;99.90
31133;DHT22;17779;50.942;4.026;2023-07-29T10:43:03;24.20;99.90
31133;DHT22;17779;50.942;4.026;2023-07-29T10:45:37;25.20;99.90
31133;DHT22;17779;50.942;4.026;2023-07-29T10:48:08;27.90;99.90
31133;DHT22;17779;50.942;4.026;2023-07-29T10:50:35;28.60;99.90
31133;DHT22;17779;50.942;4.026;2023-07-29T10:53:01;28.50;99.90
31133;DHT22;17779;50.942;4.026;2023-07-29T10:55:29;28.20;99.90
31133;DHT22;17779;50.942;4.026;2023-07-29T10:58:16;26.70;99.90
31133;DHT22;17779;50.942;4.026;2023-07-29T11:00:44;25.50;99.90
31133;DHT22;17779;50.942;4.026;2023-07-29T11:03:11;25.20;99.90
31133;DHT22;17779;50.942;4.026;2023-07-29T11:05:44;25.30;99.90
31133;DHT22;17779;50.942;4.026;2023-07-29T11:08:16;25.00;99.90
31133;DHT22;17779;50.942;4.026;2023-07-29T11:10:43;24.90;99.90
31133;DHT22;17779;50.942;4.026;2023-07-29T11:13:09;24.70;99.90
31133;DHT22;17779;50.942;4.026;2023-07-29T11:15:37;24.70;99.90
31133;DHT22;17779;50.942;4.026;2023-07-29T11:18:04;24.80;99.90
31133;DHT22;17779;50.942;4.026;2023-07-29T11:20:31;25.20;99.90
31133;DHT22;17779;50.942;4.026;2023-07-29T11:22:57;26.20;99.90
31133;DHT22;17779;50.942;4.026;2023-07-29T11:25:23;28.10;99.90
31133;DHT22;17779;50.942;4.026;2023-07-29T11:27:52;27.70;99.90
31133;DHT22;17779;50.942;4.026;2023-07-29T11:30:18;27.50;99.90
31133;DHT22;17779;50.942;4.026;2023-07-29T11:32:44;26.90;99.90
31133;DHT22;17779;50.942;4.026;2023-07-29T11:35:11;26.20;99.90
31133;DHT22;17779;50.942;4.026;2023-07-29T11:37:38;25.70;99.90
31133;DHT22;17779;50.942;4.026;2023-07-29T11:40:06;24.70;99.90
31133;DHT22;17779;50.942;4.026;2023-07-29T11:42:32;24.60;99.90
31133;DHT22;17779;50.942;4.026;2023-07-29T11:45:04;23.80;99.90
31133;DHT22;17779;50.942;4.026;2023-07-29T11:47:32;23.10;99.90
31133;DHT22;17779;50.942;4.026;2023-07-29T11:50:01;22.70;99.90
31133;DHT22;17779;50.942;4.026;2023-07-29T11:52:27;23.00;99.90
31133;DHT22;17779;50.942;4.026;2023-07-29T11:54:52;23.70;99.90
31133;DHT22;17779;50.942;4.026;2023-07-29T11:57:19;25.50;99.90
31133;DHT22;17779;50.942;4.026;2023-07-29T11:59:45;28.70;99.90
31133;DHT22;17779;50.942;4.026;2023-07-29T12:02:12;30.00;99.90
31133;DHT22;17779;50.942;4.026;2023-07-29T12:04:39;29.60;99.90
31133;DHT22;17779;50.942;4.026;2023-07-29T12:07:05;30.20;99.90
31133;DHT22;17779;50.942;4.026;2023-07-29T12:09:31;31.70;99.90
31133;DHT22;17779;50.942;4.026;2023-07-29T12:11:57;32.00;99.90
31133;DHT22;17779;50.942;4.026;2023-07-29T12:14:25;33.00;99.90
31133;DHT22;17779;50.942;4.026;2023-07-29T12:16:51;34.00;99.90
31133;DHT22;17779;50.942;4.026;2023-07-29T12:19:17;34.10;98.50
31133;DHT22;17779;50.942;4.026;2023-07-29T12:21:43;34.80;97.20
31133;DHT22;17779;50.942;4.026;2023-07-29T12:24:09;34.30;95.50
31133;DHT22;17779;50.942;4.026;2023-07-29T12:26:35;33.90;94.60
31133;DHT22;17779;50.942;4.026;2023-07-29T12:29:19;32.30;96.50
31133;DHT22;17779;50.942;4.026;2023-07-29T12:31:45;30.30;99.90
31133;DHT22;17779;50.942;4.026;2023-07-29T12:34:21;28.70;99.90
31133;DHT22;17779;50.942;4.026;2023-07-29T12:36:48;29.50;99.90
31133;DHT22;17779;50.942;4.026;2023-07-29T12:41:42;29.90;99.90
31133;DHT22;17779;50.942;4.026;2023-07-29T12:44:08;29.80;99.90
31133;DHT22;17779;50.942;4.026;2023-07-29T12:46:34;30.60;99.90
31133;DHT22;17779;50.942;4.026;2023-07-29T12:48:59;30.60;99.90
31133;DHT22;17779;50.942;4.026;2023-07-29T12:51:25;28.90;99.90
31133;DHT22;17779;50.942;4.026;2023-07-29T12:53:50;27.60;99.90
31133;DHT22;17779;50.942;4.026;2023-07-29T12:56:16;27.20;99.90
31133;DHT22;17779;50.942;4.026;2023-07-29T12:58:42;27.30;99.90
31133;DHT22;17779;50.942;4.026;2023-07-29T13:01:07;26.90;99.90
31133;DHT22;17779;50.942;4.026;2023-07-29T13:03:34;27.00;99.90
31133;DHT22;17779;50.942;4.026;2023-07-29T13:06:00;27.70;99.90
31133;DHT22;17779;50.942;4.026;2023-07-29T13:08:25;27.80;99.90
31133;DHT22;17779;50.942;4.026;2023-07-29T13:10:51;27.70;99.90
31133;DHT22;17779;50.942;4.026;2023-07-29T13:13:17;27.60;99.90
31133;DHT22;17779;50.942;4.026;2023-07-29T13:15:43;27.40;99.90
31133;DHT22;17779;50.942;4.026;2023-07-29T13:18:09;27.20;99.90
31133;DHT22;17779;50.942;4.026;2023-07-29T13:20:34;27.30;99.90
31133;DHT22;17779;50.942;4.026;2023-07-29T13:23:00;27.10;99.90
31133;DHT22;17779;50.942;4.026;2023-07-29T13:25:26;27.00;99.90
31133;DHT22;17779;50.942;4.026;2023-07-29T13:27:51;26.50;99.90
31133;DHT22;17779;50.942;4.026;2023-07-29T13:30:17;26.80;99.90
31133;DHT22;17779;50.942;4.026;2023-07-29T13:32:42;26.70;99.90
31133;DHT22;17779;50.942;4.026;2023-07-29T13:35:08;26.90;99.90
31133;DHT22;17779;50.942;4.026;2023-07-29T13:37:34;26.80;99.90
31133;DHT22;17779;50.942;4.026;2023-07-29T13:39:59;27.00;99.90
31133;DHT22;17779;50.942;4.026;2023-07-29T13:42:25;27.10;99.90
31133;DHT22;17779;50.942;4.026;2023-07-29T13:44:50;27.00;99.90
31133;DHT22;17779;50.942;4.026;2023-07-29T13:47:16;26.90;99.90
31133;DHT22;17779;50.942;4.026;2023-07-29T13:49:42;26.80;99.90
31133;DHT22;17779;50.942;4.026;2023-07-29T13:52:07;26.70;99.90
31133;DHT22;17779;50.942;4.026;2023-07-29T13:54:33;26.80;99.90
31133;DHT22;17779;50.942;4.026;2023-07-29T13:56:59;26.60;99.90
31133;DHT22;17779;50.942;4.026;2023-07-29T13:59:24;26.50;99.90
31133;DHT22;17779;50.942;4.026;2023-07-29T14:01:50;26.70;99.90
31133;DHT22;17779;50.942;4.026;2023-07-29T14:04:16;26.60;99.90
31133;DHT22;17779;50.942;4.026;2023-07-29T14:06:41;26.30;99.90
31133;DHT22;17779;50.942;4.026;2023-07-29T14:09:07;26.20;99.90
31133;DHT22;17779;50.942;4.026;2023-07-29T14:11:33;26.30;99.90
31133;DHT22;17779;50.942;4.026;2023-07-29T14:13:58;26.30;99.90
31133;DHT22;17779;50.942;4.026;2023-07-29T14:16:24;25.90;99.90
31133;DHT22;17779;50.942;4.026;2023-07-29T14:18:49;25.60;99.90
31133;DHT22;17779;50.942;4.026;2023-07-29T14:21:15;25.10;99.90
31133;DHT22;17779;50.942;4.026;2023-07-29T14:23:41;25.10;99.90
31133;DHT22;17779;50.942;4.026;2023-07-29T14:26:06;25.50;99.90
31133;DHT22;17779;50.942;4.026;2023-07-29T14:28:35;25.50;99.90
31133;DHT22;17779;50.942;4.026;2023-07-29T14:31:01;25.60;99.90
31133;DHT22;17779;50.942;4.026;2023-07-29T14:33:26;25.70;99.90
31133;DHT22;17779;50.942;4.026;2023-07-29T14:35:53;25.50;99.90
31133;DHT22;17779;50.942;4.026;2023-07-29T14:38:18;25.40;99.90
31133;DHT22;17779;50.942;4.026;2023-07-29T14:40:47;25.20;99.90
31133;DHT22;17779;50.942;4.026;2023-07-29T14:43:12;25.20;99.90
31133;DHT22;17779;50.942;4.026;2023-07-29T14:45:38;25.40;99.90
31133;DHT22;17779;50.942;4.026;2023-07-29T14:48:04;25.70;99.90
31133;DHT22;17779;50.942;4.026;2023-07-29T14:50:30;25.70;99.90
31133;DHT22;17779;50.942;4.026;2023-07-29T14:52:55;25.90;99.90
31133;DHT22;17779;50.942;4.026;2023-07-29T14:55:21;26.20;99.90
31133;DHT22;17779;50.942;4.026;2023-07-29T14:57:47;25.90;99.90
31133;DHT22;17779;50.942;4.026;2023-07-29T15:00:12;25.80;99.90
31133;DHT22;17779;50.942;4.026;2023-07-29T15:02:38;25.80;99.90
31133;DHT22;17779;50.942;4.026;2023-07-29T15:05:05;26.10;99.90
31133;DHT22;17779;50.942;4.026;2023-07-29T15:07:30;26.00;99.90
31133;DHT22;17779;50.942;4.026;2023-07-29T15:09:56;25.90;99.90
31133;DHT22;17779;50.942;4.026;2023-07-29T15:12:22;25.90;99.90
31133;DHT22;17779;50.942;4.026;2023-07-29T15:14:47;25.80;99.90
31133;DHT22;17779;50.942;4.026;2023-07-29T15:17:13;25.60;99.90
31133;DHT22;17779;50.942;4.026;2023-07-29T15:19:39;25.30;99.90
31133;DHT22;17779;50.942;4.026;2023-07-29T15:22:05;25.40;99.90
31133;DHT22;17779;50.942;4.026;2023-07-29T15:24:30;25.30;99.90
31133;DHT22;17779;50.942;4.026;2023-07-29T15:26:56;25.20;99.90
31133;DHT22;17779;50.942;4.026;2023-07-29T15:29:22;25.00;99.90
31133;DHT22;17779;50.942;4.026;2023-07-29T15:31:47;24.70;99.90